KACB/ACB METAR and TAF weather

Enter ICAO airport designator
Station Type Date Time Source
KACB METAR 2021/07/30 06:55 UTC NOAA

KACB 300655Z AUTO 01004KT 10SM SCT028 BKN041 16/12 A3008 RMK AO2 T01620117


Station Type Date Time Source
KACB Decoded METAR 2021/07/30 06:55 UTC NOAA

Bellaire, Antrim County Airport, MI, United States (KACB) 44-59-18N 085-11-54W
Jul 30, 2021 - 02:55 AM EDT / 2021.07.30 0655 UTC
Wind: from the N (010 degrees) at 5 MPH (4 KT):0
Visibility: 10 mile(s):0
Sky conditions: mostly cloudy
Temperature: 61.2 F (16.2 C)
Dew Point: 53.1 F (11.7 C)
Relative Humidity: 74%
Pressure (altimeter): 30.08 in. Hg (1018 hPa)
ob: KACB 300655Z AUTO 01004KT 10SM SCT028 BKN041 16/12 A3008 RMK AO2 T01620117
cycle: 7

Station Type Date Time Source
KACB TAF UTC NOAA

Error!

Example: see airport list